Time;durP1;ratioP1;P1;durP2;ratioP2;P2;SDS_P1;SDS_P2;PMS_P1;PMS_P2;Temp;Humidity;BMP_temperature;BMP_pressure;BME280_temperature;BME280_humidity;BME280_pressure;Samples;Min_cycle;Max_cycle;Signal;HPM_P1;HPM_P2
2021/07/10 00:00:53;;;;;;;;;;;14.20;97.40;;;;;;5054497;28;19955;-67
2021/07/10 00:03:19;;;;;;;;;;;14.10;97.30;;;;;;5060536;28;20011;-67
2021/07/10 00:05:44;;;;;;;;;;;14.10;97.40;;;;;;5057702;28;19973;-67
2021/07/10 00:08:10;;;;;;;;;;;14.00;97.40;;;;;;5060109;28;19991;-66
2021/07/10 00:10:36;;;;;;;;;;;14.00;97.50;;;;;;5057865;28;20214;-68
2021/07/10 00:13:01;;;;;;;;;;;14.00;97.50;;;;;;5057583;28;19974;-66
2021/07/10 00:15:27;;;;;;;;;;;13.90;97.50;;;;;;5058172;28;20403;-67
2021/07/10 00:17:53;;;;;;;;;;;13.90;97.50;;;;;;5058793;28;19912;-67
2021/07/10 00:20:18;;;;;;;;;;;13.90;97.70;;;;;;5059700;28;19935;-67
2021/07/10 00:22:44;;;;;;;;;;;13.80;97.70;;;;;;5056488;28;19938;-67
2021/07/10 00:25:11;;;;;;;;;;;13.80;97.80;;;;;;5059996;28;19995;-66
2021/07/10 00:27:38;;;;;;;;;;;13.80;97.80;;;;;;5053787;28;20281;-67
2021/07/10 00:30:04;;;;;;;;;;;13.80;97.80;;;;;;5056684;28;20427;-69
2021/07/10 00:32:29;;;;;;;;;;;13.80;97.80;;;;;;5058663;28;19917;-68
2021/07/10 00:34:55;;;;;;;;;;;13.80;97.90;;;;;;5059679;28;19923;-69
2021/07/10 00:37:20;;;;;;;;;;;13.80;97.80;;;;;;5059631;28;20011;-68
2021/07/10 00:39:46;;;;;;;;;;;13.70;97.70;;;;;;5057703;28;19920;-67
2021/07/10 00:42:16;;;;;;;;;;;13.70;97.90;;;;;;5059920;28;19912;-68
2021/07/10 00:44:42;;;;;;;;;;;13.70;97.90;;;;;;5058218;28;19931;-69
2021/07/10 00:47:07;;;;;;;;;;;13.70;97.90;;;;;;5058665;28;20254;-68
2021/07/10 00:49:33;;;;;;;;;;;13.60;97.90;;;;;;5053736;28;20073;-67
2021/07/10 00:51:58;;;;;;;;;;;13.50;98.00;;;;;;5057601;28;19916;-66
2021/07/10 00:54:24;;;;;;;;;;;13.60;98.00;;;;;;5058165;28;20030;-67
2021/07/10 00:56:50;;;;;;;;;;;13.50;98.00;;;;;;5057959;28;19939;-66
2021/07/10 00:59:16;;;;;;;;;;;13.50;98.10;;;;;;5054491;28;19913;-65
2021/07/10 01:01:43;;;;;;;;;;;13.40;98.10;;;;;;5055878;28;20404;-67
2021/07/10 01:04:08;;;;;;;;;;;13.50;98.20;;;;;;5053612;28;20070;-66
2021/07/10 01:06:34;;;;;;;;;;;13.40;98.20;;;;;;5058258;28;19947;-66
2021/07/10 01:09:01;;;;;;;;;;;13.40;98.30;;;;;;5057974;28;19932;-66
2021/07/10 01:11:27;;;;;;;;;;;13.40;98.40;;;;;;5058630;28;19913;-67
2021/07/10 01:13:53;;;;;;;;;;;13.30;98.30;;;;;;5058585;28;19912;-69
2021/07/10 01:16:19;;;;;;;;;;;13.30;98.40;;;;;;5058636;28;19931;-67
2021/07/10 01:18:44;;;;;;;;;;;13.30;98.50;;;;;;5056452;28;20392;-66
2021/07/10 01:21:10;;;;;;;;;;;13.30;98.40;;;;;;5055651;28;19963;-67
2021/07/10 01:23:35;;;;;;;;;;;13.30;98.40;;;;;;5060209;28;20327;-68
2021/07/10 01:26:01;;;;;;;;;;;13.20;98.40;;;;;;5058475;28;19916;-67
2021/07/10 01:28:26;;;;;;;;;;;13.30;98.60;;;;;;5057121;28;19951;-66
2021/07/10 01:30:52;;;;;;;;;;;13.20;98.60;;;;;;5056506;28;19968;-67
2021/07/10 01:33:17;;;;;;;;;;;13.30;98.70;;;;;;5055758;28;20419;-66
2021/07/10 01:35:43;;;;;;;;;;;13.10;98.50;;;;;;5059185;28;20264;-67
2021/07/10 01:38:10;;;;;;;;;;;13.10;98.60;;;;;;5056616;28;19920;-68
2021/07/10 01:40:36;;;;;;;;;;;13.00;98.60;;;;;;5058081;28;20237;-66
2021/07/10 01:43:05;;;;;;;;;;;13.00;98.70;;;;;;5060700;28;20019;-66
2021/07/10 01:45:33;;;;;;;;;;;13.00;98.90;;;;;;5058318;28;19916;-68
2021/07/10 01:47:59;;;;;;;;;;;13.00;98.80;;;;;;5056689;28;20372;-65
2021/07/10 01:50:25;;;;;;;;;;;13.10;98.90;;;;;;5054169;28;19972;-67
2021/07/10 01:52:51;;;;;;;;;;;13.10;98.90;;;;;;5058361;28;20011;-67
2021/07/10 01:55:16;;;;;;;;;;;13.00;98.90;;;;;;5060594;28;19917;-67
2021/07/10 01:57:43;;;;;;;;;;;13.00;98.80;;;;;;5063335;28;19940;-66
2021/07/10 02:00:08;;;;;;;;;;;13.00;98.90;;;;;;5055132;28;19967;-67
2021/07/10 02:02:34;;;;;;;;;;;13.00;98.90;;;;;;5061866;28;19948;-67
2021/07/10 02:04:59;;;;;;;;;;;13.00;98.90;;;;;;5057024;28;19913;-66
2021/07/10 02:07:25;;;;;;;;;;;13.00;99.00;;;;;;5059511;28;19920;-67
2021/07/10 02:09:50;;;;;;;;;;;13.00;98.90;;;;;;5050354;28;20003;-66
2021/07/10 02:12:16;;;;;;;;;;;12.90;99.00;;;;;;5057128;28;19917;-66
2021/07/10 02:14:42;;;;;;;;;;;13.00;99.00;;;;;;5058622;28;20381;-65
2021/07/10 02:17:07;;;;;;;;;;;13.00;99.00;;;;;;5057281;28;19927;-68
2021/07/10 02:19:33;;;;;;;;;;;13.00;99.00;;;;;;5063134;28;19923;-68
2021/07/10 02:21:59;;;;;;;;;;;13.00;99.10;;;;;;5059951;28;20393;-67
2021/07/10 02:24:24;;;;;;;;;;;12.90;98.90;;;;;;5056791;28;19999;-66
2021/07/10 02:26:50;;;;;;;;;;;12.90;99.00;;;;;;5064180;28;19928;-67
2021/07/10 02:29:16;;;;;;;;;;;12.90;99.00;;;;;;5060178;28;20008;-67
2021/07/10 02:31:42;;;;;;;;;;;12.90;99.10;;;;;;5055544;28;19988;-67
2021/07/10 02:34:08;;;;;;;;;;;12.80;98.90;;;;;;5060137;28;20309;-69
2021/07/10 02:36:33;;;;;;;;;;;12.80;99.00;;;;;;5064371;28;19928;-69
2021/07/10 02:38:59;;;;;;;;;;;12.90;99.10;;;;;;5062575;28;20486;-66
2021/07/10 02:41:25;;;;;;;;;;;13.00;99.10;;;;;;5055367;28;19939;-66
2021/07/10 02:43:51;;;;;;;;;;;13.00;99.00;;;;;;5058327;28;19912;-67
2021/07/10 02:46:17;;;;;;;;;;;13.00;98.90;;;;;;5059995;28;20070;-66
2021/07/10 02:48:45;;;;;;;;;;;13.00;98.80;;;;;;5058053;28;20015;-66
2021/07/10 02:51:11;;;;;;;;;;;13.10;98.70;;;;;;5047908;28;20432;-66
2021/07/10 02:53:36;;;;;;;;;;;13.10;98.70;;;;;;5050667;28;19924;-66
2021/07/10 02:56:02;;;;;;;;;;;13.20;98.70;;;;;;5065294;28;19926;-66
2021/07/10 02:58:28;;;;;;;;;;;13.20;98.50;;;;;;5065064;28;19940;-66
2021/07/10 03:00:53;;;;;;;;;;;13.20;98.40;;;;;;5064597;28;19913;-66
2021/07/10 03:03:19;;;;;;;;;;;13.20;98.40;;;;;;5064126;28;19924;-67
2021/07/10 03:05:44;;;;;;;;;;;13.20;98.40;;;;;;5066097;28;19938;-68
2021/07/10 03:08:10;;;;;;;;;;;13.20;98.30;;;;;;5064584;28;20325;-67
2021/07/10 03:10:35;;;;;;;;;;;13.20;98.30;;;;;;5059920;28;19924;-67
2021/07/10 03:13:01;;;;;;;;;;;13.20;98.30;;;;;;5056391;28;20003;-67
2021/07/10 03:15:27;;;;;;;;;;;13.20;98.30;;;;;;5054601;28;19916;-68
2021/07/10 03:17:52;;;;;;;;;;;13.20;98.20;;;;;;5049633;28;20007;-67
2021/07/10 03:20:19;;;;;;;;;;;13.30;98.30;;;;;;5065389;28;19923;-68
2021/07/10 03:22:45;;;;;;;;;;;13.30;98.20;;;;;;5053138;28;20016;-70
2021/07/10 03:25:11;;;;;;;;;;;13.30;98.00;;;;;;5059509;28;19987;-67
2021/07/10 03:27:37;;;;;;;;;;;13.50;97.90;;;;;;5058398;28;19913;-67
2021/07/10 03:30:07;;;;;;;;;;;13.50;97.70;;;;;;5054306;28;20007;-66
2021/07/10 03:32:32;;;;;;;;;;;13.50;97.40;;;;;;5059253;28;20373;-66
2021/07/10 03:34:58;;;;;;;;;;;13.50;97.40;;;;;;5053438;28;19927;-67
2021/07/10 03:37:23;;;;;;;;;;;13.50;97.20;;;;;;5057367;28;19913;-67
2021/07/10 03:39:49;;;;;;;;;;;13.50;97.00;;;;;;5060499;28;19917;-67
2021/07/10 03:42:14;;;;;;;;;;;13.50;97.10;;;;;;5058451;28;19982;-66
2021/07/10 03:44:40;;;;;;;;;;;13.50;96.80;;;;;;5062643;28;20261;-66
2021/07/10 03:47:05;;;;;;;;;;;13.50;96.60;;;;;;5063204;28;20391;-66
2021/07/10 03:49:31;;;;;;;;;;;13.50;96.60;;;;;;5056996;28;20410;-69
2021/07/10 03:51:56;;;;;;;;;;;13.60;96.70;;;;;;5057421;28;19913;-67
2021/07/10 03:54:22;;;;;;;;;;;13.50;96.70;;;;;;5051708;28;19917;-67
2021/07/10 03:56:47;;;;;;;;;;;13.50;96.60;;;;;;5063640;28;19967;-66
2021/07/10 03:59:13;;;;;;;;;;;13.60;96.70;;;;;;5064185;28;20004;-67
2021/07/10 04:01:41;;;;;;;;;;;13.60;96.60;;;;;;5063237;28;19912;-66
2021/07/10 04:04:07;;;;;;;;;;;13.60;96.60;;;;;;5056882;28;19935;-67
2021/07/10 04:06:33;;;;;;;;;;;13.70;96.70;;;;;;5064004;28;19999;-67
2021/07/10 04:08:58;;;;;;;;;;;13.70;96.50;;;;;;5050733;28;19917;-69
2021/07/10 04:11:23;;;;;;;;;;;13.80;96.70;;;;;;5060173;28;19923;-67
2021/07/10 04:13:49;;;;;;;;;;;13.70;96.40;;;;;;5052317;28;19954;-67
2021/07/10 04:16:14;;;;;;;;;;;13.70;96.20;;;;;;5061583;28;20388;-66
2021/07/10 04:18:40;;;;;;;;;;;13.80;96.20;;;;;;5061511;28;19912;-67
2021/07/10 04:21:05;;;;;;;;;;;13.80;95.90;;;;;;5058022;28;19920;-67
2021/07/10 04:23:31;;;;;;;;;;;13.90;95.80;;;;;;5063438;28;19924;-69
2021/07/10 04:25:57;;;;;;;;;;;14.00;95.70;;;;;;5064074;28;20023;-67
2021/07/10 04:28:22;;;;;;;;;;;14.00;95.60;;;;;;5055305;28;19992;-66
2021/07/10 04:30:48;;;;;;;;;;;14.00;95.80;;;;;;5051720;28;20333;-67
2021/07/10 04:33:13;;;;;;;;;;;14.10;95.80;;;;;;5059693;28;19991;-69
2021/07/10 04:35:39;;;;;;;;;;;14.10;95.80;;;;;;5064541;28;20403;-66
2021/07/10 04:38:05;;;;;;;;;;;14.10;95.40;;;;;;5059593;28;19932;-67
2021/07/10 04:40:30;;;;;;;;;;;14.10;95.40;;;;;;5054751;28;19920;-69
2021/07/10 04:42:56;;;;;;;;;;;14.20;95.00;;;;;;5062597;28;19939;-67
2021/07/10 04:45:21;;;;;;;;;;;14.20;95.10;;;;;;5062438;28;19943;-67
2021/07/10 04:47:47;;;;;;;;;;;14.30;95.00;;;;;;5052462;28;19912;-68
2021/07/10 04:50:13;;;;;;;;;;;14.30;94.50;;;;;;5056680;28;19931;-66
2021/07/10 04:52:42;;;;;;;;;;;14.20;94.70;;;;;;5054470;28;20359;-67
2021/07/10 04:55:14;;;;;;;;;;;14.30;94.90;;;;;;5051467;28;20509;-66
2021/07/10 04:57:40;;;;;;;;;;;14.30;94.90;;;;;;5062735;28;20192;-68
2021/07/10 05:00:06;;;;;;;;;;;14.40;94.40;;;;;;5062352;28;20025;-67
2021/07/10 05:02:32;;;;;;;;;;;14.40;94.50;;;;;;5062189;28;19943;-67
2021/07/10 05:04:57;;;;;;;;;;;14.40;94.30;;;;;;5063240;28;19912;-66
2021/07/10 05:07:23;;;;;;;;;;;14.50;94.10;;;;;;5058494;28;19977;-66
2021/07/10 05:09:49;;;;;;;;;;;14.50;94.00;;;;;;5058276;28;20227;-67
2021/07/10 05:12:16;;;;;;;;;;;14.60;94.00;;;;;;5061083;28;19923;-67
2021/07/10 05:14:42;;;;;;;;;;;14.70;93.80;;;;;;5057219;28;19956;-66
2021/07/10 05:17:07;;;;;;;;;;;14.80;93.50;;;;;;5059583;28;19955;-67
2021/07/10 05:19:32;;;;;;;;;;;14.80;93.30;;;;;;5062406;28;19916;-67
2021/07/10 05:21:58;;;;;;;;;;;14.90;93.30;;;;;;5061741;28;19923;-66
2021/07/10 05:24:24;;;;;;;;;;;14.80;92.70;;;;;;5058114;28;19920;-68
2021/07/10 05:26:49;;;;;;;;;;;14.90;92.90;;;;;;5061246;28;20848;-68
2021/07/10 05:29:16;;;;;;;;;;;15.00;92.50;;;;;;5060239;28;20268;-67
2021/07/10 05:31:41;;;;;;;;;;;15.00;92.70;;;;;;5062461;28;20371;-66
2021/07/10 05:34:07;;;;;;;;;;;15.10;92.50;;;;;;5057472;28;19999;-67
2021/07/10 05:36:32;;;;;;;;;;;15.10;92.40;;;;;;5066416;28;19917;-68
2021/07/10 05:38:58;;;;;;;;;;;15.10;92.10;;;;;;5066334;28;19939;-68
2021/07/10 05:41:23;;;;;;;;;;;15.10;92.10;;;;;;5055816;28;20387;-67
2021/07/10 05:43:49;;;;;;;;;;;15.10;92.50;;;;;;5066058;28;19982;-68
2021/07/10 05:46:14;;;;;;;;;;;15.30;92.60;;;;;;5064160;28;20405;-67
2021/07/10 05:48:40;;;;;;;;;;;15.30;91.60;;;;;;5057216;28;19916;-69
2021/07/10 05:51:05;;;;;;;;;;;15.30;91.20;;;;;;5058872;28;20392;-69
2021/07/10 05:53:31;;;;;;;;;;;15.30;91.60;;;;;;5056899;28;20106;-67
2021/07/10 05:55:57;;;;;;;;;;;15.40;92.00;;;;;;5066446;28;20086;-67
2021/07/10 05:58:22;;;;;;;;;;;15.50;92.20;;;;;;5056680;28;19912;-66
2021/07/10 06:00:48;;;;;;;;;;;15.60;91.60;;;;;;5064080;28;19920;-69
2021/07/10 06:03:13;;;;;;;;;;;15.80;91.60;;;;;;5064550;28;20016;-67
2021/07/10 06:05:39;;;;;;;;;;;15.90;90.80;;;;;;5064013;28;20011;-68
2021/07/10 06:08:04;;;;;;;;;;;15.90;89.80;;;;;;5065648;28;19912;-68
2021/07/10 06:10:30;;;;;;;;;;;15.80;89.30;;;;;;5050596;28;19978;-68
2021/07/10 06:12:55;;;;;;;;;;;15.80;89.40;;;;;;5059094;28;19961;-69
2021/07/10 06:15:21;;;;;;;;;;;15.90;89.50;;;;;;5059659;28;19917;-68
2021/07/10 06:17:46;;;;;;;;;;;15.80;89.30;;;;;;5061198;28;19963;-69
2021/07/10 06:20:14;;;;;;;;;;;15.90;89.20;;;;;;5067315;28;19987;-67
2021/07/10 06:22:39;;;;;;;;;;;16.00;89.50;;;;;;5062210;28;20629;-68
2021/07/10 06:25:06;;;;;;;;;;;16.00;88.50;;;;;;5065226;28;20256;-68
2021/07/10 06:27:32;;;;;;;;;;;16.00;88.70;;;;;;5059557;28;20019;-67
2021/07/10 06:29:57;;;;;;;;;;;16.10;88.50;;;;;;5060558;28;20096;-69
2021/07/10 06:32:23;;;;;;;;;;;16.10;88.10;;;;;;5061127;28;20317;-66
2021/07/10 06:34:48;;;;;;;;;;;16.20;88.10;;;;;;5061063;28;20378;-64
2021/07/10 06:37:14;;;;;;;;;;;16.20;88.00;;;;;;5065227;28;20122;-68
2021/07/10 06:39:39;;;;;;;;;;;16.30;87.40;;;;;;5059441;28;20341;-67
2021/07/10 06:42:05;;;;;;;;;;;16.30;86.70;;;;;;5061038;28;19913;-68
2021/07/10 06:44:31;;;;;;;;;;;16.30;87.60;;;;;;5058454;28;19920;-67
2021/07/10 06:46:56;;;;;;;;;;;16.40;87.20;;;;;;5056727;28;19965;-67
2021/07/10 06:49:22;;;;;;;;;;;16.30;86.50;;;;;;5063026;28;20368;-68
2021/07/10 06:51:47;;;;;;;;;;;16.40;87.50;;;;;;5047779;28;20296;-67
2021/07/10 06:54:13;;;;;;;;;;;16.50;86.50;;;;;;5064116;28;20007;-69
2021/07/10 06:56:38;;;;;;;;;;;16.60;86.00;;;;;;5065907;28;19909;-66
2021/07/10 06:59:04;;;;;;;;;;;16.70;86.90;;;;;;5064973;28;19916;-67
2021/07/10 07:01:29;;;;;;;;;;;16.80;85.10;;;;;;5065036;28;19927;-69
2021/07/10 07:03:55;;;;;;;;;;;17.00;85.20;;;;;;5051407;28;20096;-68
2021/07/10 07:06:20;;;;;;;;;;;16.90;83.80;;;;;;5057636;28;20306;-66
2021/07/10 07:08:46;;;;;;;;;;;16.90;83.80;;;;;;5051886;28;19931;-69
2021/07/10 07:11:12;;;;;;;;;;;16.90;84.30;;;;;;5056340;28;19928;-67
2021/07/10 07:13:37;;;;;;;;;;;16.90;84.30;;;;;;5056026;28;20679;-67
2021/07/10 07:16:03;;;;;;;;;;;16.90;83.80;;;;;;5057802;28;19920;-67
2021/07/10 07:18:29;;;;;;;;;;;17.00;83.70;;;;;;5054775;28;19943;-68
2021/07/10 07:20:54;;;;;;;;;;;17.10;84.40;;;;;;5063971;28;19988;-67
2021/07/10 07:23:20;;;;;;;;;;;17.30;83.50;;;;;;5052939;28;19921;-69
2021/07/10 07:25:45;;;;;;;;;;;17.40;83.40;;;;;;5057416;28;19913;-68
2021/07/10 07:28:11;;;;;;;;;;;17.50;83.40;;;;;;5058306;28;19923;-68
2021/07/10 07:30:36;;;;;;;;;;;17.40;81.90;;;;;;5063985;28;19923;-68
2021/07/10 07:33:02;;;;;;;;;;;17.50;81.80;;;;;;5061132;28;19967;-71
2021/07/10 07:35:28;;;;;;;;;;;17.50;81.60;;;;;;5063599;28;20375;-69
2021/07/10 07:37:53;;;;;;;;;;;17.50;81.50;;;;;;5062854;28;20075;-66
2021/07/10 07:40:18;;;;;;;;;;;17.70;81.70;;;;;;5064406;28;19977;-67
2021/07/10 07:42:45;;;;;;;;;;;17.60;80.70;;;;;;5057896;28;19912;-70
2021/07/10 07:45:12;;;;;;;;;;;17.70;81.30;;;;;;5056102;28;20003;-68
2021/07/10 07:47:37;;;;;;;;;;;17.70;82.00;;;;;;5057652;28;20006;-68
2021/07/10 07:50:06;;;;;;;;;;;17.80;79.50;;;;;;5057290;28;20003;-68
2021/07/10 07:52:31;;;;;;;;;;;17.80;80.30;;;;;;5051844;28;20300;-68
2021/07/10 07:54:57;;;;;;;;;;;18.20;79.20;;;;;;5049462;28;20001;-69
2021/07/10 07:57:22;;;;;;;;;;;18.80;77.80;;;;;;5063969;28;19917;-68
2021/07/10 07:59:48;;;;;;;;;;;19.20;76.60;;;;;;5064970;28;19913;-69
2021/07/10 08:02:13;;;;;;;;;;;19.20;75.70;;;;;;5063241;28;19908;-68
2021/07/10 08:04:39;;;;;;;;;;;19.00;75.60;;;;;;5055980;28;19917;-68
2021/07/10 08:07:04;;;;;;;;;;;19.00;75.30;;;;;;5062115;28;20307;-68
2021/07/10 08:09:30;;;;;;;;;;;18.80;76.20;;;;;;5064266;28;20377;-68
2021/07/10 08:11:56;;;;;;;;;;;18.80;75.00;;;;;;5064227;28;19916;-68
2021/07/10 08:14:22;;;;;;;;;;;19.10;74.30;;;;;;5049840;28;19909;-70
2021/07/10 08:16:48;;;;;;;;;;;19.10;74.50;;;;;;5048708;28;19966;-68
2021/07/10 08:19:13;;;;;;;;;;;18.80;73.90;;;;;;5058009;28;19913;-68
2021/07/10 08:21:39;;;;;;;;;;;18.90;75.10;;;;;;5058501;28;20023;-69
2021/07/10 08:24:05;;;;;;;;;;;18.90;75.50;;;;;;5056850;28;20345;-69
2021/07/10 08:26:30;;;;;;;;;;;19.20;74.00;;;;;;5055634;28;19924;-68
2021/07/10 08:28:56;;;;;;;;;;;19.60;73.50;;;;;;5054974;28;19916;-70
2021/07/10 08:31:22;;;;;;;;;;;19.60;70.50;;;;;;5055564;28;19928;-70
2021/07/10 08:33:47;;;;;;;;;;;19.60;73.10;;;;;;5060572;28;19987;-70
2021/07/10 08:36:13;;;;;;;;;;;19.40;72.90;;;;;;5050435;28;19921;-68
2021/07/10 08:38:38;;;;;;;;;;;19.50;72.10;;;;;;5058291;28;19908;-69
2021/07/10 08:41:07;;;;;;;;;;;19.50;71.10;;;;;;5060197;28;19981;-70
2021/07/10 08:43:33;;;;;;;;;;;19.70;72.30;;;;;;5059668;28;19919;-69
2021/07/10 08:46:00;;;;;;;;;;;20.00;70.60;;;;;;5056723;28;19921;-68
2021/07/10 08:48:26;;;;;;;;;;;20.00;69.60;;;;;;5047981;28;20443;-70
2021/07/10 08:50:52;;;;;;;;;;;20.00;70.50;;;;;;5048458;28;20039;-69
2021/07/10 08:53:18;;;;;;;;;;;20.10;70.60;;;;;;5058106;28;20030;-70
2021/07/10 08:55:43;;;;;;;;;;;20.40;69.20;;;;;;5063076;28;20396;-70
2021/07/10 08:58:09;;;;;;;;;;;20.20;68.60;;;;;;5061202;28;20073;-69
2021/07/10 09:00:36;;;;;;;;;;;20.20;69.60;;;;;;5057241;28;19935;-69
2021/07/10 09:03:02;;;;;;;;;;;20.50;67.00;;;;;;5058879;28;20295;-70
2021/07/10 09:05:28;;;;;;;;;;;20.70;66.60;;;;;;5061276;28;19917;-71
2021/07/10 09:08:09;;;;;;;;;;;20.60;65.80;;;;;;5051205;28;20381;-69
2021/07/10 09:10:35;;;;;;;;;;;21.00;65.70;;;;;;5058561;28;19948;-68
2021/07/10 09:13:01;;;;;;;;;;;21.00;65.00;;;;;;5031893;28;19981;-68
2021/07/10 09:15:27;;;;;;;;;;;20.90;66.60;;;;;;5053634;28;19924;-70
2021/07/10 09:17:53;;;;;;;;;;;20.90;65.80;;;;;;5060845;28;20369;-68
2021/07/10 09:20:23;;;;;;;;;;;20.60;67.40;;;;;;5055448;28;20145;-68
2021/07/10 09:22:51;;;;;;;;;;;20.50;65.80;;;;;;5059386;28;19921;-69
2021/07/10 09:25:29;;;;;;;;;;;20.80;65.50;;;;;;5050610;28;19928;-71
2021/07/10 09:27:55;;;;;;;;;;;20.80;66.50;;;;;;5059634;28;20484;-69
2021/07/10 09:30:34;;;;;;;;;;;20.70;67.00;;;;;;5060777;28;20450;-71
2021/07/10 09:33:10;;;;;;;;;;;20.70;66.80;;;;;;5059713;28;20403;-71
2021/07/10 09:35:46;;;;;;;;;;;20.70;66.90;;;;;;5058807;28;19920;-70
2021/07/10 09:38:19;;;;;;;;;;;20.50;66.30;;;;;;5057534;28;20372;-69
2021/07/10 09:40:54;;;;;;;;;;;20.50;65.90;;;;;;5062591;28;20014;-71
2021/07/10 09:43:27;;;;;;;;;;;20.80;65.60;;;;;;5062478;28;19958;-70
2021/07/10 09:45:52;;;;;;;;;;;20.90;66.10;;;;;;5062619;28;19963;-72
2021/07/10 09:48:18;;;;;;;;;;;21.30;66.20;;;;;;5061712;28;19920;-71
2021/07/10 09:50:43;;;;;;;;;;;21.50;61.70;;;;;;5055198;28;20449;-69
2021/07/10 09:53:22;;;;;;;;;;;21.90;60.30;;;;;;5059473;28;20018;-70
2021/07/10 09:55:47;;;;;;;;;;;22.20;61.80;;;;;;5062966;28;19931;-71
2021/07/10 09:58:30;;;;;;;;;;;21.90;62.40;;;;;;5053840;28;19916;-69
2021/07/10 10:00:55;;;;;;;;;;;21.80;60.70;;;;;;5057091;28;19985;-72
2021/07/10 10:03:30;;;;;;;;;;;22.20;60.50;;;;;;5061544;28;20011;-71
2021/07/10 10:05:56;;;;;;;;;;;22.40;58.80;;;;;;5061434;28;20269;-72
2021/07/10 10:08:31;;;;;;;;;;;22.50;60.90;;;;;;5061617;28;19912;-69
2021/07/10 10:10:56;;;;;;;;;;;22.60;61.60;;;;;;5058938;28;19924;-72
2021/07/10 10:13:22;;;;;;;;;;;22.00;60.70;;;;;;5054698;28;19912;-71
2021/07/10 10:15:52;;;;;;;;;;;21.50;62.60;;;;;;5062858;28;19921;-70
2021/07/10 10:18:19;;;;;;;;;;;21.90;62.30;;;;;;5061165;28;19923;-69
2021/07/10 10:20:46;;;;;;;;;;;22.00;60.80;;;;;;5060419;28;19913;-71
2021/07/10 10:23:12;;;;;;;;;;;21.50;63.00;;;;;;5062968;28;19913;-70
2021/07/10 10:25:38;;;;;;;;;;;21.50;62.30;;;;;;5056943;28;20381;-69
2021/07/10 10:28:04;;;;;;;;;;;21.60;62.20;;;;;;5057075;28;19916;-70
2021/07/10 10:30:30;;;;;;;;;;;21.80;62.30;;;;;;5061783;28;19944;-70
2021/07/10 10:32:55;;;;;;;;;;;21.70;62.60;;;;;;5059410;28;20268;-71
2021/07/10 10:35:21;;;;;;;;;;;21.60;61.80;;;;;;5061888;28;19971;-71
2021/07/10 10:37:46;;;;;;;;;;;21.40;62.40;;;;;;5064049;28;19920;-69
2021/07/10 10:40:16;;;;;;;;;;;21.10;63.60;;;;;;5058258;28;19913;-69
2021/07/10 10:42:42;;;;;;;;;;;21.30;65.40;;;;;;5060077;28;19924;-69
2021/07/10 10:45:08;;;;;;;;;;;21.50;63.80;;;;;;5063622;28;19920;-70
2021/07/10 10:47:41;;;;;;;;;;;21.40;64.60;;;;;;5059917;28;19912;-68
2021/07/10 10:50:16;;;;;;;;;;;21.10;64.60;;;;;;5056415;28;20006;-69
2021/07/10 10:52:43;;;;;;;;;;;20.90;64.20;;;;;;5059905;28;19928;-70
2021/07/10 10:55:10;;;;;;;;;;;20.80;63.50;;;;;;5065640;28;19921;-68
2021/07/10 10:57:37;;;;;;;;;;;21.00;63.80;;;;;;5065053;28;19920;-69
2021/07/10 11:00:11;;;;;;;;;;;21.30;63.80;;;;;;5066104;28;19912;-71
2021/07/10 11:02:36;;;;;;;;;;;21.60;61.90;;;;;;5063696;28;20043;-71
2021/07/10 11:05:03;;;;;;;;;;;21.90;61.40;;;;;;5061871;28;19991;-69
2021/07/10 11:07:36;;;;;;;;;;;21.50;61.60;;;;;;5059500;28;19916;-69
2021/07/10 11:10:01;;;;;;;;;;;21.50;62.80;;;;;;5056737;28;19912;-70
2021/07/10 11:12:46;;;;;;;;;;;21.30;62.90;;;;;;5064055;28;20258;-72
2021/07/10 11:15:34;;;;;;;;;;;21.50;63.00;;;;;;5064573;28;19956;-70
2021/07/10 11:18:00;;;;;;;;;;;21.50;62.20;;;;;;5055432;28;19928;-70
2021/07/10 11:20:41;;;;;;;;;;;21.60;62.80;;;;;;5059797;28;19966;-72
2021/07/10 11:23:07;;;;;;;;;;;21.70;62.90;;;;;;5059443;28;19924;-69
2021/07/10 11:25:45;;;;;;;;;;;22.50;62.10;;;;;;5059013;28;20353;-72
2021/07/10 11:28:14;;;;;;;;;;;22.70;59.60;;;;;;5040064;28;20320;-70
2021/07/10 11:30:45;;;;;;;;;;;23.10;58.30;;;;;;5053552;28;20466;-70
2021/07/10 11:33:11;;;;;;;;;;;22.50;60.50;;;;;;5062892;28;19974;-72
2021/07/10 11:35:37;;;;;;;;;;;22.40;60.00;;;;;;5055332;28;20338;-71
2021/07/10 11:38:03;;;;;;;;;;;22.90;57.90;;;;;;5063203;28;19919;-68
2021/07/10 11:40:36;;;;;;;;;;;23.40;56.30;;;;;;5058550;28;19943;-70
2021/07/10 11:43:08;;;;;;;;;;;23.00;57.90;;;;;;5058839;28;19920;-70
2021/07/10 11:45:34;;;;;;;;;;;22.90;56.60;;;;;;5051990;28;19913;-70
2021/07/10 11:48:16;;;;;;;;;;;23.40;57.90;;;;;;5059655;28;19920;-72
2021/07/10 11:50:42;;;;;;;;;;;23.30;56.30;;;;;;5057845;28;19932;-71
2021/07/10 11:53:08;;;;;;;;;;;23.50;56.30;;;;;;5055979;28;19986;-68
2021/07/10 11:55:35;;;;;;;;;;;23.50;56.10;;;;;;5056745;28;19916;-71
2021/07/10 11:58:05;;;;;;;;;;;23.00;56.50;;;;;;5056376;28;19917;-69
2021/07/10 12:00:31;;;;;;;;;;;23.40;59.00;;;;;;5057012;28;19962;-70
2021/07/10 12:02:56;;;;;;;;;;;23.50;56.20;;;;;;5043929;28;19912;-72
2021/07/10 12:05:23;;;;;;;;;;;23.60;57.60;;;;;;5058956;28;19917;-71
2021/07/10 12:07:49;;;;;;;;;;;23.50;56.50;;;;;;5056628;28;19940;-69
2021/07/10 12:10:19;;;;;;;;;;;23.50;56.30;;;;;;5053467;28;19912;-70
2021/07/10 12:12:45;;;;;;;;;;;23.30;58.60;;;;;;5059504;28;19988;-69
2021/07/10 12:15:15;;;;;;;;;;;23.90;55.80;;;;;;5050734;28;19920;-69
2021/07/10 12:17:44;;;;;;;;;;;23.60;54.90;;;;;;5055226;28;20137;-70
2021/07/10 12:20:10;;;;;;;;;;;23.40;55.90;;;;;;5055620;28;20022;-72
2021/07/10 12:22:46;;;;;;;;;;;23.90;56.00;;;;;;5056294;28;20004;-69
2021/07/10 12:25:12;;;;;;;;;;;24.50;53.40;;;;;;5054615;28;19912;-68
2021/07/10 12:27:37;;;;;;;;;;;24.30;52.20;;;;;;5057509;28;19920;-69
2021/07/10 12:30:03;;;;;;;;;;;24.50;51.20;;;;;;5055581;28;20015;-69
2021/07/10 12:32:28;;;;;;;;;;;24.60;52.60;;;;;;5060443;28;20397;-71
2021/07/10 12:34:54;;;;;;;;;;;24.50;52.80;;;;;;5058686;28;20010;-70
2021/07/10 12:37:23;;;;;;;;;;;24.20;54.20;;;;;;5058957;28;19928;-69
2021/07/10 12:39:49;;;;;;;;;;;24.30;52.90;;;;;;5056298;28;19954;-73
2021/07/10 12:42:15;;;;;;;;;;;24.40;54.20;;;;;;5055302;28;19946;-71
2021/07/10 12:44:42;;;;;;;;;;;24.50;54.40;;;;;;5056336;28;20070;-69
2021/07/10 12:47:09;;;;;;;;;;;23.70;54.50;;;;;;5059263;28;19917;-70
2021/07/10 12:49:36;;;;;;;;;;;24.20;53.90;;;;;;5058496;28;19936;-69
2021/07/10 12:52:03;;;;;;;;;;;24.40;52.90;;;;;;5055126;28;19921;-69
2021/07/10 12:54:32;;;;;;;;;;;24.90;53.10;;;;;;5053103;28;19942;-69
2021/07/10 12:56:59;;;;;;;;;;;25.50;50.00;;;;;;5055819;28;19924;-71
2021/07/10 12:59:25;;;;;;;;;;;24.60;51.60;;;;;;5058763;28;20350;-70
2021/07/10 13:01:51;;;;;;;;;;;25.20;50.20;;;;;;5049683;28;19950;-70
2021/07/10 13:04:17;;;;;;;;;;;24.60;51.10;;;;;;5053048;28;19909;-69
2021/07/10 13:06:43;;;;;;;;;;;24.70;52.90;;;;;;5056214;28;20051;-72
2021/07/10 13:09:09;;;;;;;;;;;25.40;50.80;;;;;;5056288;28;19916;-72
2021/07/10 13:11:54;;;;;;;;;;;25.30;49.70;;;;;;5054503;28;19923;-69
2021/07/10 13:14:23;;;;;;;;;;;25.40;51.40;;;;;;5059757;28;20195;-69
2021/07/10 13:16:49;;;;;;;;;;;25.10;51.70;;;;;;5055205;28;19979;-70
2021/07/10 13:19:15;;;;;;;;;;;25.60;50.80;;;;;;5054981;28;19920;-71
2021/07/10 13:21:40;;;;;;;;;;;25.70;48.30;;;;;;5058461;28;19934;-68
2021/07/10 13:24:12;;;;;;;;;;;26.30;48.50;;;;;;5053650;28;20239;-69
2021/07/10 13:26:39;;;;;;;;;;;26.50;49.00;;;;;;5057720;28;19924;-71
2021/07/10 13:29:16;;;;;;;;;;;27.00;47.20;;;;;;5058063;28;19924;-70
2021/07/10 13:31:42;;;;;;;;;;;27.10;47.30;;;;;;5061671;28;19960;-67
2021/07/10 13:34:14;;;;;;;;;;;27.20;45.90;;;;;;5050939;28;19917;-69
2021/07/10 13:36:40;;;;;;;;;;;26.80;47.90;;;;;;5056989;28;20004;-68
2021/07/10 13:39:07;;;;;;;;;;;27.00;45.60;;;;;;5053069;28;19913;-70
2021/07/10 13:41:34;;;;;;;;;;;27.30;43.80;;;;;;5057849;28;19912;-70
2021/07/10 13:44:10;;;;;;;;;;;27.40;43.80;;;;;;5056750;28;19916;-69
2021/07/10 13:46:40;;;;;;;;;;;27.40;45.10;;;;;;5053891;28;19924;-69
2021/07/10 13:49:25;;;;;;;;;;;28.20;43.10;;;;;;5059814;28;20637;-68
2021/07/10 13:51:56;;;;;;;;;;;28.70;44.90;;;;;;5056923;28;20027;-67
2021/07/10 13:54:29;;;;;;;;;;;28.80;44.20;;;;;;5057624;28;19919;-69
2021/07/10 13:57:15;;;;;;;;;;;28.00;43.70;;;;;;5059781;28;20058;-67
2021/07/10 13:59:59;;;;;;;;;;;28.00;44.30;;;;;;5055444;28;20064;-69
2021/07/10 14:02:25;;;;;;;;;;;27.50;44.30;;;;;;5060203;28;20266;-68
2021/07/10 14:04:57;;;;;;;;;;;26.80;45.90;;;;;;5062248;28;19912;-68
2021/07/10 14:07:22;;;;;;;;;;;27.40;46.50;;;;;;5060921;28;19923;-67
2021/07/10 14:09:48;;;;;;;;;;;27.90;45.00;;;;;;5061591;28;19917;-71
2021/07/10 14:12:13;;;;;;;;;;;28.10;44.80;;;;;;5060514;28;20345;-68
2021/07/10 14:14:39;;;;;;;;;;;27.10;46.20;;;;;;5058850;28;19931;-68